sensor_id;sensor_type;location;lat;lon;timestamp;P1;durP1;ratioP1;P2;durP2;ratioP2
39140;SDS011;24875;48.436;10.298;2024-02-14T00:01:18;7.07;;;3.60;;
39140;SDS011;24875;48.436;10.298;2024-02-14T00:03:44;6.23;;;3.40;;
39140;SDS011;24875;48.436;10.298;2024-02-14T00:06:11;5.30;;;2.73;;
39140;SDS011;24875;48.436;10.298;2024-02-14T00:08:38;8.77;;;3.37;;
39140;SDS011;24875;48.436;10.298;2024-02-14T00:11:04;8.43;;;3.53;;
39140;SDS011;24875;48.436;10.298;2024-02-14T00:13:31;7.27;;;3.40;;
39140;SDS011;24875;48.436;10.298;2024-02-14T00:16:00;8.00;;;3.13;;
39140;SDS011;24875;48.436;10.298;2024-02-14T00:18:27;11.03;;;3.50;;
39140;SDS011;24875;48.436;10.298;2024-02-14T00:20:54;9.03;;;2.87;;
39140;SDS011;24875;48.436;10.298;2024-02-14T00:23:20;5.43;;;3.13;;
39140;SDS011;24875;48.436;10.298;2024-02-14T00:25:47;11.77;;;3.30;;
39140;SDS011;24875;48.436;10.298;2024-02-14T00:28:14;5.10;;;3.40;;
39140;SDS011;24875;48.436;10.298;2024-02-14T00:30:40;6.30;;;3.27;;
39140;SDS011;24875;48.436;10.298;2024-02-14T00:33:08;6.47;;;3.63;;
39140;SDS011;24875;48.436;10.298;2024-02-14T00:35:34;7.57;;;4.00;;
39140;SDS011;24875;48.436;10.298;2024-02-14T00:38:01;4.47;;;3.47;;
39140;SDS011;24875;48.436;10.298;2024-02-14T00:40:27;9.33;;;3.90;;
39140;SDS011;24875;48.436;10.298;2024-02-14T00:42:54;9.53;;;3.33;;
39140;SDS011;24875;48.436;10.298;2024-02-14T00:45:20;4.67;;;2.80;;
39140;SDS011;24875;48.436;10.298;2024-02-14T00:47:47;7.10;;;2.87;;
39140;SDS011;24875;48.436;10.298;2024-02-14T00:50:15;6.77;;;3.63;;
39140;SDS011;24875;48.436;10.298;2024-02-14T00:52:41;5.93;;;3.03;;
39140;SDS011;24875;48.436;10.298;2024-02-14T00:55:08;10.23;;;3.40;;
39140;SDS011;24875;48.436;10.298;2024-02-14T00:57:35;7.20;;;3.60;;
39140;SDS011;24875;48.436;10.298;2024-02-14T01:00:01;7.17;;;3.40;;
39140;SDS011;24875;48.436;10.298;2024-02-14T01:02:29;6.07;;;2.83;;
39140;SDS011;24875;48.436;10.298;2024-02-14T01:04:56;6.17;;;3.63;;
39140;SDS011;24875;48.436;10.298;2024-02-14T01:07:23;8.30;;;3.30;;
39140;SDS011;24875;48.436;10.298;2024-02-14T01:09:50;3.63;;;2.40;;
39140;SDS011;24875;48.436;10.298;2024-02-14T01:12:16;3.70;;;2.37;;
39140;SDS011;24875;48.436;10.298;2024-02-14T01:14:43;7.10;;;2.90;;
39140;SDS011;24875;48.436;10.298;2024-02-14T01:17:10;6.23;;;3.13;;
39140;SDS011;24875;48.436;10.298;2024-02-14T01:19:36;5.10;;;3.27;;
39140;SDS011;24875;48.436;10.298;2024-02-14T01:22:03;6.33;;;3.17;;
39140;SDS011;24875;48.436;10.298;2024-02-14T01:24:31;7.63;;;3.60;;
39140;SDS011;24875;48.436;10.298;2024-02-14T01:26:57;6.47;;;3.30;;
39140;SDS011;24875;48.436;10.298;2024-02-14T01:29:24;5.77;;;2.80;;
39140;SDS011;24875;48.436;10.298;2024-02-14T01:31:51;5.57;;;2.57;;
39140;SDS011;24875;48.436;10.298;2024-02-14T01:34:17;6.03;;;2.90;;
39140;SDS011;24875;48.436;10.298;2024-02-14T01:36:44;5.10;;;2.70;;
39140;SDS011;24875;48.436;10.298;2024-02-14T01:39:10;7.40;;;3.30;;
39140;SDS011;24875;48.436;10.298;2024-02-14T01:41:38;9.97;;;3.90;;
39140;SDS011;24875;48.436;10.298;2024-02-14T01:44:05;5.43;;;3.07;;
39140;SDS011;24875;48.436;10.298;2024-02-14T01:46:32;6.60;;;3.30;;
39140;SDS011;24875;48.436;10.298;2024-02-14T01:48:58;7.03;;;3.30;;
39140;SDS011;24875;48.436;10.298;2024-02-14T01:51:25;5.67;;;2.90;;
39140;SDS011;24875;48.436;10.298;2024-02-14T01:53:52;8.53;;;3.67;;
39140;SDS011;24875;48.436;10.298;2024-02-14T01:56:20;6.13;;;3.97;;
39140;SDS011;24875;48.436;10.298;2024-02-14T01:58:49;6.47;;;3.50;;
39140;SDS011;24875;48.436;10.298;2024-02-14T02:01:15;7.27;;;3.73;;
39140;SDS011;24875;48.436;10.298;2024-02-14T02:03:42;7.13;;;3.17;;
39140;SDS011;24875;48.436;10.298;2024-02-14T02:06:09;7.47;;;3.63;;
39140;SDS011;24875;48.436;10.298;2024-02-14T02:08:36;7.73;;;3.93;;
39140;SDS011;24875;48.436;10.298;2024-02-14T02:11:02;4.70;;;3.10;;
39140;SDS011;24875;48.436;10.298;2024-02-14T02:13:30;7.87;;;3.23;;
39140;SDS011;24875;48.436;10.298;2024-02-14T02:15:58;5.63;;;3.00;;
39140;SDS011;24875;48.436;10.298;2024-02-14T02:18:26;8.53;;;3.60;;
39140;SDS011;24875;48.436;10.298;2024-02-14T02:20:52;7.30;;;3.50;;
39140;SDS011;24875;48.436;10.298;2024-02-14T02:23:20;7.20;;;3.23;;
39140;SDS011;24875;48.436;10.298;2024-02-14T02:25:47;8.87;;;3.27;;
39140;SDS011;24875;48.436;10.298;2024-02-14T02:28:14;7.00;;;3.23;;
39140;SDS011;24875;48.436;10.298;2024-02-14T02:30:40;7.93;;;3.63;;
39140;SDS011;24875;48.436;10.298;2024-02-14T02:33:07;6.03;;;2.93;;
39140;SDS011;24875;48.436;10.298;2024-02-14T02:35:34;8.70;;;3.83;;
39140;SDS011;24875;48.436;10.298;2024-02-14T02:38:00;9.00;;;3.50;;
39140;SDS011;24875;48.436;10.298;2024-02-14T02:40:28;6.60;;;3.53;;
39140;SDS011;24875;48.436;10.298;2024-02-14T02:42:55;9.40;;;3.47;;
39140;SDS011;24875;48.436;10.298;2024-02-14T02:45:22;9.77;;;3.70;;
39140;SDS011;24875;48.436;10.298;2024-02-14T02:47:49;8.63;;;3.37;;
39140;SDS011;24875;48.436;10.298;2024-02-14T02:50:17;7.30;;;3.53;;
39140;SDS011;24875;48.436;10.298;2024-02-14T02:52:44;4.97;;;2.77;;
39140;SDS011;24875;48.436;10.298;2024-02-14T02:55:11;8.57;;;2.93;;
39140;SDS011;24875;48.436;10.298;2024-02-14T02:57:39;5.10;;;2.67;;
39140;SDS011;24875;48.436;10.298;2024-02-14T03:00:07;6.87;;;3.30;;
39140;SDS011;24875;48.436;10.298;2024-02-14T03:02:35;6.80;;;2.83;;
39140;SDS011;24875;48.436;10.298;2024-02-14T03:05:03;7.73;;;2.80;;
39140;SDS011;24875;48.436;10.298;2024-02-14T03:07:31;6.00;;;3.13;;
39140;SDS011;24875;48.436;10.298;2024-02-14T03:09:58;5.63;;;3.27;;
39140;SDS011;24875;48.436;10.298;2024-02-14T03:12:25;5.77;;;2.43;;
39140;SDS011;24875;48.436;10.298;2024-02-14T03:14:55;4.97;;;2.30;;
39140;SDS011;24875;48.436;10.298;2024-02-14T03:17:21;6.63;;;2.90;;
39140;SDS011;24875;48.436;10.298;2024-02-14T03:19:48;5.00;;;2.80;;
39140;SDS011;24875;48.436;10.298;2024-02-14T03:22:17;4.63;;;2.80;;
39140;SDS011;24875;48.436;10.298;2024-02-14T03:24:43;5.83;;;2.83;;
39140;SDS011;24875;48.436;10.298;2024-02-14T03:27:12;6.97;;;2.80;;
39140;SDS011;24875;48.436;10.298;2024-02-14T03:29:39;11.93;;;3.00;;
39140;SDS011;24875;48.436;10.298;2024-02-14T03:32:07;5.60;;;2.70;;
39140;SDS011;24875;48.436;10.298;2024-02-14T03:34:34;6.80;;;2.93;;
39140;SDS011;24875;48.436;10.298;2024-02-14T03:37:00;4.30;;;2.33;;
39140;SDS011;24875;48.436;10.298;2024-02-14T03:39:27;7.63;;;3.40;;
39140;SDS011;24875;48.436;10.298;2024-02-14T03:41:54;6.70;;;3.23;;
39140;SDS011;24875;48.436;10.298;2024-02-14T03:44:21;6.10;;;3.00;;
39140;SDS011;24875;48.436;10.298;2024-02-14T03:46:47;6.80;;;2.50;;
39140;SDS011;24875;48.436;10.298;2024-02-14T03:49:15;5.70;;;2.40;;
39140;SDS011;24875;48.436;10.298;2024-02-14T03:51:42;7.70;;;2.90;;
39140;SDS011;24875;48.436;10.298;2024-02-14T03:54:08;6.23;;;3.57;;
39140;SDS011;24875;48.436;10.298;2024-02-14T03:56:36;7.87;;;2.67;;
39140;SDS011;24875;48.436;10.298;2024-02-14T03:59:03;3.90;;;2.67;;
39140;SDS011;24875;48.436;10.298;2024-02-14T04:01:32;5.97;;;2.60;;
39140;SDS011;24875;48.436;10.298;2024-02-14T04:03:59;7.60;;;2.97;;
39140;SDS011;24875;48.436;10.298;2024-02-14T04:06:27;5.57;;;2.73;;
39140;SDS011;24875;48.436;10.298;2024-02-14T04:08:56;7.80;;;2.63;;
39140;SDS011;24875;48.436;10.298;2024-02-14T04:11:23;6.63;;;2.80;;
39140;SDS011;24875;48.436;10.298;2024-02-14T04:13:50;5.30;;;2.57;;
39140;SDS011;24875;48.436;10.298;2024-02-14T04:16:18;8.43;;;2.87;;
39140;SDS011;24875;48.436;10.298;2024-02-14T04:18:45;7.07;;;4.20;;
39140;SDS011;24875;48.436;10.298;2024-02-14T04:21:12;8.80;;;3.90;;
39140;SDS011;24875;48.436;10.298;2024-02-14T04:23:40;7.47;;;3.03;;
39140;SDS011;24875;48.436;10.298;2024-02-14T04:26:07;7.40;;;2.80;;
39140;SDS011;24875;48.436;10.298;2024-02-14T04:28:34;4.17;;;2.20;;
39140;SDS011;24875;48.436;10.298;2024-02-14T04:31:00;4.43;;;2.63;;
39140;SDS011;24875;48.436;10.298;2024-02-14T04:33:27;4.90;;;2.70;;
39140;SDS011;24875;48.436;10.298;2024-02-14T04:35:53;4.80;;;2.53;;
39140;SDS011;24875;48.436;10.298;2024-02-14T04:38:20;14.07;;;4.93;;
39140;SDS011;24875;48.436;10.298;2024-02-14T04:40:48;11.53;;;4.37;;
39140;SDS011;24875;48.436;10.298;2024-02-14T04:43:15;14.43;;;5.77;;
39140;SDS011;24875;48.436;10.298;2024-02-14T04:45:42;10.43;;;5.07;;
39140;SDS011;24875;48.436;10.298;2024-02-14T04:48:08;9.10;;;3.83;;
39140;SDS011;24875;48.436;10.298;2024-02-14T04:50:35;15.47;;;4.80;;
39140;SDS011;24875;48.436;10.298;2024-02-14T04:53:02;10.37;;;4.07;;
39140;SDS011;24875;48.436;10.298;2024-02-14T04:55:28;4.57;;;2.57;;
39140;SDS011;24875;48.436;10.298;2024-02-14T04:57:56;5.17;;;2.43;;
39140;SDS011;24875;48.436;10.298;2024-02-14T05:00:23;4.73;;;2.17;;
39140;SDS011;24875;48.436;10.298;2024-02-14T05:02:49;6.00;;;2.60;;
39140;SDS011;24875;48.436;10.298;2024-02-14T05:05:16;4.37;;;2.27;;
39140;SDS011;24875;48.436;10.298;2024-02-14T05:07:45;11.77;;;4.63;;
39140;SDS011;24875;48.436;10.298;2024-02-14T05:10:12;15.07;;;5.17;;
39140;SDS011;24875;48.436;10.298;2024-02-14T05:12:39;17.07;;;6.27;;
39140;SDS011;24875;48.436;10.298;2024-02-14T05:15:08;9.43;;;4.13;;
39140;SDS011;24875;48.436;10.298;2024-02-14T05:17:34;7.57;;;3.10;;
39140;SDS011;24875;48.436;10.298;2024-02-14T05:20:01;7.50;;;2.90;;
39140;SDS011;24875;48.436;10.298;2024-02-14T05:22:28;10.73;;;3.80;;
39140;SDS011;24875;48.436;10.298;2024-02-14T05:24:54;8.57;;;3.50;;
39140;SDS011;24875;48.436;10.298;2024-02-14T05:27:21;10.37;;;3.43;;
39140;SDS011;24875;48.436;10.298;2024-02-14T05:29:47;21.60;;;5.17;;
39140;SDS011;24875;48.436;10.298;2024-02-14T05:32:15;24.80;;;6.77;;
39140;SDS011;24875;48.436;10.298;2024-02-14T05:34:41;11.17;;;3.70;;
39140;SDS011;24875;48.436;10.298;2024-02-14T05:37:08;35.40;;;8.40;;
39140;SDS011;24875;48.436;10.298;2024-02-14T05:39:34;18.80;;;5.87;;
39140;SDS011;24875;48.436;10.298;2024-02-14T05:42:01;12.30;;;4.23;;
39140;SDS011;24875;48.436;10.298;2024-02-14T05:44:29;16.43;;;4.90;;
39140;SDS011;24875;48.436;10.298;2024-02-14T05:46:56;15.80;;;5.43;;
39140;SDS011;24875;48.436;10.298;2024-02-14T05:49:24;17.33;;;5.20;;
39140;SDS011;24875;48.436;10.298;2024-02-14T05:51:50;9.63;;;2.70;;
39140;SDS011;24875;48.436;10.298;2024-02-14T05:54:18;8.40;;;3.50;;
39140;SDS011;24875;48.436;10.298;2024-02-14T05:56:45;25.33;;;6.07;;
39140;SDS011;24875;48.436;10.298;2024-02-14T05:59:12;3.63;;;2.37;;
39140;SDS011;24875;48.436;10.298;2024-02-14T06:01:38;4.13;;;2.33;;
39140;SDS011;24875;48.436;10.298;2024-02-14T06:04:05;4.07;;;2.10;;
39140;SDS011;24875;48.436;10.298;2024-02-14T06:06:33;4.57;;;2.13;;
39140;SDS011;24875;48.436;10.298;2024-02-14T06:08:59;5.03;;;2.77;;
39140;SDS011;24875;48.436;10.298;2024-02-14T06:11:26;5.83;;;2.73;;
39140;SDS011;24875;48.436;10.298;2024-02-14T06:13:52;3.30;;;2.13;;
39140;SDS011;24875;48.436;10.298;2024-02-14T06:16:19;3.60;;;2.03;;
39140;SDS011;24875;48.436;10.298;2024-02-14T06:18:45;4.93;;;2.60;;
39140;SDS011;24875;48.436;10.298;2024-02-14T06:21:12;16.60;;;5.33;;
39140;SDS011;24875;48.436;10.298;2024-02-14T06:23:40;6.73;;;3.20;;
39140;SDS011;24875;48.436;10.298;2024-02-14T06:26:07;13.43;;;4.03;;
39140;SDS011;24875;48.436;10.298;2024-02-14T06:28:33;12.37;;;3.97;;
39140;SDS011;24875;48.436;10.298;2024-02-14T06:31:00;9.40;;;4.50;;
39140;SDS011;24875;48.436;10.298;2024-02-14T06:33:26;17.37;;;4.93;;
39140;SDS011;24875;48.436;10.298;2024-02-14T06:35:53;17.13;;;4.63;;
39140;SDS011;24875;48.436;10.298;2024-02-14T06:38:19;10.73;;;3.67;;
39140;SDS011;24875;48.436;10.298;2024-02-14T06:40:47;9.30;;;3.07;;
39140;SDS011;24875;48.436;10.298;2024-02-14T06:43:15;10.23;;;4.10;;
39140;SDS011;24875;48.436;10.298;2024-02-14T06:45:41;9.50;;;4.40;;
39140;SDS011;24875;48.436;10.298;2024-02-14T06:48:08;8.13;;;2.97;;
39140;SDS011;24875;48.436;10.298;2024-02-14T06:50:35;7.13;;;2.80;;
39140;SDS011;24875;48.436;10.298;2024-02-14T06:53:01;4.87;;;2.60;;
39140;SDS011;24875;48.436;10.298;2024-02-14T06:55:28;6.37;;;3.07;;
39140;SDS011;24875;48.436;10.298;2024-02-14T06:57:58;7.13;;;3.80;;
39140;SDS011;24875;48.436;10.298;2024-02-14T07:00:25;7.07;;;3.73;;
39140;SDS011;24875;48.436;10.298;2024-02-14T07:02:53;6.93;;;2.93;;
39140;SDS011;24875;48.436;10.298;2024-02-14T07:05:19;11.70;;;4.30;;
39140;SDS011;24875;48.436;10.298;2024-02-14T07:07:46;16.57;;;3.27;;
39140;SDS011;24875;48.436;10.298;2024-02-14T07:10:12;9.77;;;3.20;;
39140;SDS011;24875;48.436;10.298;2024-02-14T07:12:39;6.53;;;2.40;;
39140;SDS011;24875;48.436;10.298;2024-02-14T07:15:07;7.17;;;3.00;;
39140;SDS011;24875;48.436;10.298;2024-02-14T07:17:34;5.03;;;2.90;;
39140;SDS011;24875;48.436;10.298;2024-02-14T07:20:01;3.67;;;2.00;;
39140;SDS011;24875;48.436;10.298;2024-02-14T07:22:27;9.73;;;2.77;;
39140;SDS011;24875;48.436;10.298;2024-02-14T07:24:55;5.47;;;2.67;;
39140;SDS011;24875;48.436;10.298;2024-02-14T07:27:22;3.27;;;2.17;;
39140;SDS011;24875;48.436;10.298;2024-02-14T07:29:49;6.20;;;3.33;;
39140;SDS011;24875;48.436;10.298;2024-02-14T07:32:16;3.93;;;2.33;;
39140;SDS011;24875;48.436;10.298;2024-02-14T07:34:43;3.47;;;2.07;;
39140;SDS011;24875;48.436;10.298;2024-02-14T07:37:10;3.23;;;2.23;;
39140;SDS011;24875;48.436;10.298;2024-02-14T07:39:36;2.90;;;2.07;;
39140;SDS011;24875;48.436;10.298;2024-02-14T07:42:03;6.37;;;2.40;;
39140;SDS011;24875;48.436;10.298;2024-02-14T07:44:30;4.13;;;2.10;;
39140;SDS011;24875;48.436;10.298;2024-02-14T07:46:57;5.37;;;2.20;;
39140;SDS011;24875;48.436;10.298;2024-02-14T07:49:25;6.47;;;2.17;;
39140;SDS011;24875;48.436;10.298;2024-02-14T07:51:51;3.07;;;1.67;;
39140;SDS011;24875;48.436;10.298;2024-02-14T07:54:18;7.27;;;2.43;;
39140;SDS011;24875;48.436;10.298;2024-02-14T07:56:45;8.80;;;2.40;;
39140;SDS011;24875;48.436;10.298;2024-02-14T07:59:11;5.30;;;2.50;;
39140;SDS011;24875;48.436;10.298;2024-02-14T08:01:38;3.37;;;2.10;;
39140;SDS011;24875;48.436;10.298;2024-02-14T08:04:04;2.40;;;1.57;;
39140;SDS011;24875;48.436;10.298;2024-02-14T08:06:32;4.50;;;1.90;;
39140;SDS011;24875;48.436;10.298;2024-02-14T08:09:00;2.70;;;1.80;;
39140;SDS011;24875;48.436;10.298;2024-02-14T08:11:31;4.83;;;2.30;;
39140;SDS011;24875;48.436;10.298;2024-02-14T08:13:58;7.23;;;2.97;;
39140;SDS011;24875;48.436;10.298;2024-02-14T08:16:25;6.90;;;2.13;;
39140;SDS011;24875;48.436;10.298;2024-02-14T08:18:51;4.90;;;1.80;;
39140;SDS011;24875;48.436;10.298;2024-02-14T08:21:23;4.50;;;2.17;;
39140;SDS011;24875;48.436;10.298;2024-02-14T08:23:51;2.77;;;1.40;;
39140;SDS011;24875;48.436;10.298;2024-02-14T08:26:18;5.53;;;2.67;;
39140;SDS011;24875;48.436;10.298;2024-02-14T08:28:44;3.53;;;1.80;;
39140;SDS011;24875;48.436;10.298;2024-02-14T08:31:12;10.40;;;4.00;;
39140;SDS011;24875;48.436;10.298;2024-02-14T08:33:39;5.57;;;3.07;;
39140;SDS011;24875;48.436;10.298;2024-02-14T08:36:05;16.20;;;6.10;;
39140;SDS011;24875;48.436;10.298;2024-02-14T08:38:33;12.13;;;4.70;;
39140;SDS011;24875;48.436;10.298;2024-02-14T08:41:01;7.43;;;2.83;;
39140;SDS011;24875;48.436;10.298;2024-02-14T08:43:28;4.27;;;1.40;;
39140;SDS011;24875;48.436;10.298;2024-02-14T08:45:54;12.17;;;3.73;;
39140;SDS011;24875;48.436;10.298;2024-02-14T08:48:21;4.73;;;1.90;;
39140;SDS011;24875;48.436;10.298;2024-02-14T08:50:48;8.83;;;2.23;;
39140;SDS011;24875;48.436;10.298;2024-02-14T08:53:15;2.87;;;1.60;;
39140;SDS011;24875;48.436;10.298;2024-02-14T08:55:42;7.20;;;2.30;;
39140;SDS011;24875;48.436;10.298;2024-02-14T08:58:10;5.30;;;2.03;;
39140;SDS011;24875;48.436;10.298;2024-02-14T09:00:37;6.33;;;2.50;;
39140;SDS011;24875;48.436;10.298;2024-02-14T09:03:04;7.97;;;3.47;;
39140;SDS011;24875;48.436;10.298;2024-02-14T09:05:31;6.13;;;2.50;;
39140;SDS011;24875;48.436;10.298;2024-02-14T09:07:57;2.57;;;1.60;;
39140;SDS011;24875;48.436;10.298;2024-02-14T09:10:24;3.13;;;1.90;;
39140;SDS011;24875;48.436;10.298;2024-02-14T09:12:50;8.00;;;3.07;;
39140;SDS011;24875;48.436;10.298;2024-02-14T09:15:19;5.40;;;2.10;;
39140;SDS011;24875;48.436;10.298;2024-02-14T09:17:46;7.67;;;2.70;;
39140;SDS011;24875;48.436;10.298;2024-02-14T09:20:13;7.27;;;2.97;;
39140;SDS011;24875;48.436;10.298;2024-02-14T09:22:40;10.33;;;4.27;;
39140;SDS011;24875;48.436;10.298;2024-02-14T09:25:07;13.17;;;5.03;;
39140;SDS011;24875;48.436;10.298;2024-02-14T09:27:35;5.53;;;2.37;;
39140;SDS011;24875;48.436;10.298;2024-02-14T09:30:01;4.37;;;2.03;;
39140;SDS011;24875;48.436;10.298;2024-02-14T09:32:30;4.37;;;2.17;;
39140;SDS011;24875;48.436;10.298;2024-02-14T09:34:57;4.43;;;1.83;;
39140;SDS011;24875;48.436;10.298;2024-02-14T09:37:25;4.03;;;2.07;;
39140;SDS011;24875;48.436;10.298;2024-02-14T09:39:51;7.03;;;2.30;;
39140;SDS011;24875;48.436;10.298;2024-02-14T09:42:19;3.13;;;2.10;;
39140;SDS011;24875;48.436;10.298;2024-02-14T09:44:54;3.90;;;1.67;;
39140;SDS011;24875;48.436;10.298;2024-02-14T09:47:24;4.70;;;1.60;;
39140;SDS011;24875;48.436;10.298;2024-02-14T09:49:53;4.87;;;1.87;;
39140;SDS011;24875;48.436;10.298;2024-02-14T09:52:21;3.57;;;2.13;;
39140;SDS011;24875;48.436;10.298;2024-02-14T09:54:49;3.67;;;1.80;;
39140;SDS011;24875;48.436;10.298;2024-02-14T09:57:18;2.17;;;1.50;;
39140;SDS011;24875;48.436;10.298;2024-02-14T09:59:44;4.03;;;1.90;;
39140;SDS011;24875;48.436;10.298;2024-02-14T10:02:12;3.40;;;2.03;;
39140;SDS011;24875;48.436;10.298;2024-02-14T10:04:39;2.07;;;1.63;;
39140;SDS011;24875;48.436;10.298;2024-02-14T10:07:07;3.37;;;1.40;;
39140;SDS011;24875;48.436;10.298;2024-02-14T10:09:39;2.83;;;1.73;;
39140;SDS011;24875;48.436;10.298;2024-02-14T10:12:06;5.13;;;1.57;;
39140;SDS011;24875;48.436;10.298;2024-02-14T10:14:34;4.47;;;1.83;;
39140;SDS011;24875;48.436;10.298;2024-02-14T10:17:00;2.77;;;1.27;;
39140;SDS011;24875;48.436;10.298;2024-02-14T10:19:28;5.40;;;1.67;;
39140;SDS011;24875;48.436;10.298;2024-02-14T10:21:54;3.00;;;1.60;;
39140;SDS011;24875;48.436;10.298;2024-02-14T10:24:24;3.77;;;1.37;;
39140;SDS011;24875;48.436;10.298;2024-02-14T10:26:51;3.13;;;1.13;;
39140;SDS011;24875;48.436;10.298;2024-02-14T10:29:19;1.40;;;1.10;;
39140;SDS011;24875;48.436;10.298;2024-02-14T10:31:46;1.97;;;1.10;;
39140;SDS011;24875;48.436;10.298;2024-02-14T10:34:13;4.33;;;1.60;;
39140;SDS011;24875;48.436;10.298;2024-02-14T10:36:40;2.67;;;1.47;;
39140;SDS011;24875;48.436;10.298;2024-02-14T10:39:10;2.17;;;1.40;;
39140;SDS011;24875;48.436;10.298;2024-02-14T10:41:38;2.10;;;1.70;;
39140;SDS011;24875;48.436;10.298;2024-02-14T10:44:05;3.07;;;1.00;;
39140;SDS011;24875;48.436;10.298;2024-02-14T10:46:32;2.67;;;1.57;;
39140;SDS011;24875;48.436;10.298;2024-02-14T10:49:02;3.83;;;1.20;;
39140;SDS011;24875;48.436;10.298;2024-02-14T10:51:31;3.47;;;1.60;;
39140;SDS011;24875;48.436;10.298;2024-02-14T10:54:00;1.90;;;1.40;;
39140;SDS011;24875;48.436;10.298;2024-02-14T10:56:32;3.13;;;1.50;;
39140;SDS011;24875;48.436;10.298;2024-02-14T10:59:00;1.90;;;1.30;;
39140;SDS011;24875;48.436;10.298;2024-02-14T11:01:28;2.67;;;1.30;;
39140;SDS011;24875;48.436;10.298;2024-02-14T11:03:57;4.33;;;2.20;;
39140;SDS011;24875;48.436;10.298;2024-02-14T11:06:25;3.00;;;1.77;;
39140;SDS011;24875;48.436;10.298;2024-02-14T11:08:55;1.67;;;1.20;;
39140;SDS011;24875;48.436;10.298;2024-02-14T11:11:22;4.50;;;1.70;;
39140;SDS011;24875;48.436;10.298;2024-02-14T11:13:51;1.83;;;1.47;;
39140;SDS011;24875;48.436;10.298;2024-02-14T11:16:23;2.97;;;1.40;;
39140;SDS011;24875;48.436;10.298;2024-02-14T11:18:53;2.40;;;0.87;;
39140;SDS011;24875;48.436;10.298;2024-02-14T11:21:27;5.60;;;2.13;;
39140;SDS011;24875;48.436;10.298;2024-02-14T11:23:54;16.63;;;3.37;;
39140;SDS011;24875;48.436;10.298;2024-02-14T11:26:21;8.57;;;2.27;;
39140;SDS011;24875;48.436;10.298;2024-02-14T11:28:48;2.70;;;1.20;;
39140;SDS011;24875;48.436;10.298;2024-02-14T11:31:16;6.00;;;2.07;;
39140;SDS011;24875;48.436;10.298;2024-02-14T11:33:44;2.00;;;1.00;;
39140;SDS011;24875;48.436;10.298;2024-02-14T11:36:13;1.07;;;0.83;;
39140;SDS011;24875;48.436;10.298;2024-02-14T11:38:42;7.53;;;2.63;;
39140;SDS011;24875;48.436;10.298;2024-02-14T11:41:10;1.93;;;1.40;;
39140;SDS011;24875;48.436;10.298;2024-02-14T11:43:37;7.20;;;2.30;;
39140;SDS011;24875;48.436;10.298;2024-02-14T11:46:04;1.67;;;1.00;;
39140;SDS011;24875;48.436;10.298;2024-02-14T11:48:31;3.93;;;1.10;;
39140;SDS011;24875;48.436;10.298;2024-02-14T11:50:59;2.83;;;0.97;;
39140;SDS011;24875;48.436;10.298;2024-02-14T11:53:25;1.57;;;1.00;;
39140;SDS011;24875;48.436;10.298;2024-02-14T11:55:53;1.00;;;0.70;;
39140;SDS011;24875;48.436;10.298;2024-02-14T11:58:22;0.90;;;0.63;;
39140;SDS011;24875;48.436;10.298;2024-02-14T12:00:48;3.07;;;1.10;;
39140;SDS011;24875;48.436;10.298;2024-02-14T12:03:15;0.73;;;0.57;;
39140;SDS011;24875;48.436;10.298;2024-02-14T12:05:45;0.90;;;0.80;;
39140;SDS011;24875;48.436;10.298;2024-02-14T12:08:14;1.70;;;1.20;;
39140;SDS011;24875;48.436;10.298;2024-02-14T12:10:42;1.63;;;1.20;;
39140;SDS011;24875;48.436;10.298;2024-02-14T12:13:12;2.33;;;1.30;;
39140;SDS011;24875;48.436;10.298;2024-02-14T12:15:39;1.77;;;1.43;;
39140;SDS011;24875;48.436;10.298;2024-02-14T12:18:06;6.93;;;2.90;;
39140;SDS011;24875;48.436;10.298;2024-02-14T12:20:34;3.30;;;1.53;;
39140;SDS011;24875;48.436;10.298;2024-02-14T12:23:01;0.90;;;0.80;;
39140;SDS011;24875;48.436;10.298;2024-02-14T12:25:29;1.60;;;0.97;;
39140;SDS011;24875;48.436;10.298;2024-02-14T12:27:56;2.07;;;1.10;;
39140;SDS011;24875;48.436;10.298;2024-02-14T12:30:23;6.90;;;2.57;;
39140;SDS011;24875;48.436;10.298;2024-02-14T12:33:09;5.13;;;2.03;;
39140;SDS011;24875;48.436;10.298;2024-02-14T12:35:36;3.07;;;1.63;;
39140;SDS011;24875;48.436;10.298;2024-02-14T12:38:07;3.57;;;0.80;;
39140;SDS011;24875;48.436;10.298;2024-02-14T12:40:36;3.87;;;1.47;;
39140;SDS011;24875;48.436;10.298;2024-02-14T12:43:02;2.83;;;0.85;;
39140;SDS011;24875;48.436;10.298;2024-02-14T12:45:31;2.63;;;0.90;;
39140;SDS011;24875;48.436;10.298;2024-02-14T12:47:57;1.73;;;1.10;;
39140;SDS011;24875;48.436;10.298;2024-02-14T12:50:24;3.97;;;1.27;;
39140;SDS011;24875;48.436;10.298;2024-02-14T12:52:51;1.97;;;1.20;;
39140;SDS011;24875;48.436;10.298;2024-02-14T12:55:17;2.00;;;0.93;;
39140;SDS011;24875;48.436;10.298;2024-02-14T12:57:45;2.63;;;0.80;;
39140;SDS011;24875;48.436;10.298;2024-02-14T13:00:13;2.07;;;0.90;;
39140;SDS011;24875;48.436;10.298;2024-02-14T13:02:40;3.47;;;1.10;;
39140;SDS011;24875;48.436;10.298;2024-02-14T13:05:07;1.33;;;0.80;;
39140;SDS011;24875;48.436;10.298;2024-02-14T13:07:34;2.05;;;0.80;;
39140;SDS011;24875;48.436;10.298;2024-02-14T13:10:01;1.57;;;1.00;;
39140;SDS011;24875;48.436;10.298;2024-02-14T13:12:28;1.57;;;0.90;;
39140;SDS011;24875;48.436;10.298;2024-02-14T13:14:56;1.00;;;0.80;;
39140;SDS011;24875;48.436;10.298;2024-02-14T13:17:22;1.53;;;0.90;;
39140;SDS011;24875;48.436;10.298;2024-02-14T13:19:50;1.73;;;1.10;;
39140;SDS011;24875;48.436;10.298;2024-02-14T13:22:18;2.97;;;1.10;;
39140;SDS011;24875;48.436;10.298;2024-02-14T13:24:44;1.93;;;1.00;;
39140;SDS011;24875;48.436;10.298;2024-02-14T13:27:11;0.83;;;0.70;;
39140;SDS011;24875;48.436;10.298;2024-02-14T13:29:38;0.80;;;0.77;;
39140;SDS011;24875;48.436;10.298;2024-02-14T13:32:06;1.48;;;0.73;;
39140;SDS011;24875;48.436;10.298;2024-02-14T13:34:33;0.93;;;0.63;;
39140;SDS011;24875;48.436;10.298;2024-02-14T13:37:00;0.82;;;0.70;;
39140;SDS011;24875;48.436;10.298;2024-02-14T13:39:27;0.80;;;0.60;;
39140;SDS011;24875;48.436;10.298;2024-02-14T13:41:54;3.63;;;0.97;;
39140;SDS011;24875;48.436;10.298;2024-02-14T13:44:23;2.33;;;0.80;;
39140;SDS011;24875;48.436;10.298;2024-02-14T13:46:50;1.38;;;0.68;;
39140;SDS011;24875;48.436;10.298;2024-02-14T13:49:19;2.75;;;0.73;;
39140;SDS011;24875;48.436;10.298;2024-02-14T13:51:47;1.05;;;0.80;;
39140;SDS011;24875;48.436;10.298;2024-02-14T13:54:15;0.52;;;0.52;;
39140;SDS011;24875;48.436;10.298;2024-02-14T13:56:42;0.90;;;0.70;;
39140;SDS011;24875;48.436;10.298;2024-02-14T13:59:08;1.10;;;0.80;;
39140;SDS011;24875;48.436;10.298;2024-02-14T14:01:35;12.13;;;1.15;;
39140;SDS011;24875;48.436;10.298;2024-02-14T14:04:02;2.15;;;0.80;;
39140;SDS011;24875;48.436;10.298;2024-02-14T14:06:30;1.92;;;0.80;;
39140;SDS011;24875;48.436;10.298;2024-02-14T14:08:56;0.85;;;0.65;;
39140;SDS011;24875;48.436;10.298;2024-02-14T14:11:24;0.70;;;0.70;;
39140;SDS011;24875;48.436;10.298;2024-02-14T14:13:50;1.50;;;0.80;;
39140;SDS011;24875;48.436;10.298;2024-02-14T14:16:17;3.37;;;1.20;;
39140;SDS011;24875;48.436;10.298;2024-02-14T14:18:46;1.73;;;1.13;;
39140;SDS011;24875;48.436;10.298;2024-02-14T14:21:13;2.33;;;0.80;;
39140;SDS011;24875;48.436;10.298;2024-02-14T14:23:41;1.42;;;0.70;;
39140;SDS011;24875;48.436;10.298;2024-02-14T14:26:08;0.82;;;0.65;;
39140;SDS011;24875;48.436;10.298;2024-02-14T14:28:34;0.93;;;0.80;;
39140;SDS011;24875;48.436;10.298;2024-02-14T14:31:01;0.50;;;0.50;;
39140;SDS011;24875;48.436;10.298;2024-02-14T14:33:28;1.35;;;0.85;;